Time;durP1;ratioP1;P1;durP2;ratioP2;P2;SDS_P1;SDS_P2;PMS_P1;PMS_P2;Temp;Humidity;BMP_temperature;BMP_pressure;BME280_temperature;BME280_humidity;BME280_pressure;Samples;Min_cycle;Max_cycle;Signal;HPM_P1;HPM_P2
2022/01/12 00:01:38;;;;;;;29.87;17.90;;;;;;;2.47;84.87;103502.81;5005727;28;20446;-60
2022/01/12 00:04:03;;;;;;;33.75;18.00;;;;;;;2.47;84.95;103507.38;4998607;28;20129;-60
2022/01/12 00:06:28;;;;;;;30.45;17.40;;;;;;;2.49;85.13;103508.16;5014859;28;20473;-59
2022/01/12 00:08:54;;;;;;;29.65;18.42;;;;;;;2.50;84.95;103515.31;5007970;28;20408;-59
2022/01/12 00:11:21;;;;;;;28.98;18.02;;;;;;;2.50;84.84;103523.44;5024529;28;20025;-59
2022/01/12 00:13:47;;;;;;;32.03;18.20;;;;;;;2.52;84.82;103526.91;5015100;28;20021;-59
2022/01/12 00:16:12;;;;;;;30.17;18.20;;;;;;;2.50;85.20;103531.59;5004697;28;20083;-59
2022/01/12 00:18:37;;;;;;;32.67;18.15;;;;;;;2.51;85.07;103528.75;5004972;28;20034;-59
2022/01/12 00:21:03;;;;;;;33.15;17.65;;;;;;;2.57;84.71;103522.88;5004754;28;20049;-61
2022/01/12 00:23:28;;;;;;;29.25;18.25;;;;;;;2.53;84.94;103529.50;5005468;28;20025;-59
2022/01/12 00:26:04;;;;;;;34.15;18.67;;;;;;;2.54;84.56;103528.53;5004414;28;20711;-59
2022/01/12 00:34:00;;;;;;;29.65;18.45;;;;;;;2.56;85.36;103548.28;5005111;28;20107;-59
2022/01/12 00:36:26;;;;;;;31.15;18.65;;;;;;;2.56;85.86;103551.00;5004638;28;20460;-59
2022/01/12 00:38:52;;;;;;;34.42;19.77;;;;;;;2.55;86.47;103554.69;5003804;28;20042;-59
2022/01/12 00:41:18;;;;;;;33.22;20.13;;;;;;;2.52;87.01;103556.75;5004544;28;20036;-59
2022/01/12 00:43:46;;;;;;;33.70;19.35;;;;;;;2.48;87.83;103556.09;5004000;28;20096;-59
2022/01/12 00:46:13;;;;;;;31.50;19.48;;;;;;;2.48;88.00;103558.81;5003103;28;20064;-60
2022/01/12 00:48:38;;;;;;;31.77;19.07;;;;;;;2.41;88.58;103553.94;5004611;28;20444;-59
2022/01/12 00:51:04;;;;;;;32.50;19.55;;;;;;;2.39;89.36;103573.06;4986828;28;20038;-60
2022/01/12 00:53:29;;;;;;;33.17;19.98;;;;;;;2.37;90.19;103569.56;5004335;28;20397;-59
2022/01/12 00:55:55;;;;;;;36.20;20.38;;;;;;;2.33;90.59;103576.19;5004250;28;20034;-59
2022/01/12 00:58:20;;;;;;;39.65;22.10;;;;;;;2.30;90.86;103573.72;5003003;28;20499;-59
2022/01/12 01:00:45;;;;;;;37.70;22.27;;;;;;;2.27;91.24;103576.63;4993021;28;20051;-58
2022/01/12 01:03:11;;;;;;;35.95;21.58;;;;;;;2.25;91.57;103575.88;4999493;28;20068;-59
2022/01/12 01:05:36;;;;;;;37.22;21.77;;;;;;;2.21;92.00;103572.50;5004466;28;20042;-59
2022/01/12 01:08:02;;;;;;;38.72;22.33;;;;;;;2.18;92.25;103569.13;5002986;28;20025;-60
2022/01/12 01:10:45;;;;;;;35.90;22.25;;;;;;;2.13;93.12;103565.88;5004507;28;20475;-59
2022/01/12 01:13:11;;;;;;;40.25;24.05;;;;;;;2.12;93.13;103569.59;5003520;28;20544;-59
2022/01/12 01:16:02;;;;;;;42.25;25.05;;;;;;;2.10;93.94;103571.53;5004279;28;20101;-60
2022/01/12 01:26:40;;;;;;;39.58;23.40;;;;;;;1.95;94.77;103555.38;4999093;28;20500;-59
2022/01/12 01:29:06;;;;;;;39.67;21.70;;;;;;;1.91;95.18;103559.28;5002769;28;20030;-59
2022/01/12 01:31:33;;;;;;;46.33;25.35;;;;;;;1.86;95.63;103580.41;5004145;28;20108;-61
2022/01/12 01:34:06;;;;;;;43.87;24.90;;;;;;;1.87;95.71;103571.28;5004800;28;20038;-59
2022/01/12 01:36:34;;;;;;;45.05;25.63;;;;;;;1.85;96.44;103585.94;5003397;28;20154;-61
2022/01/12 01:38:59;;;;;;;44.80;24.92;;;;;;;1.87;96.58;103582.13;5004514;28;20484;-59
2022/01/12 01:41:24;;;;;;;44.40;25.25;;;;;;;1.86;96.40;103588.53;5003201;28;20044;-59
2022/01/12 01:55:25;;;;;;;45.85;26.15;;;;;;;1.79;96.85;103565.56;4933090;28;20039;-58
2022/01/12 01:57:51;;;;;;;47.65;27.25;;;;;;;1.80;97.55;103570.00;4922962;29;20315;-58
2022/01/12 02:00:19;;;;;;;46.10;27.30;;;;;;;1.79;97.71;103565.56;4959678;28;20042;-58
2022/01/12 02:02:46;;;;;;;45.05;27.02;;;;;;;1.80;97.49;103551.91;5002103;28;20022;-58
2022/01/12 02:05:11;;;;;;;49.40;28.88;;;;;;;1.78;97.74;103551.16;5000556;28;20018;-58
2022/01/12 02:07:37;;;;;;;49.72;29.27;;;;;;;1.78;97.74;103550.28;5003254;28;20432;-59
2022/01/12 02:10:04;;;;;;;53.58;29.70;;;;;;;1.80;98.12;103551.03;5002306;28;20109;-59
2022/01/12 02:12:29;;;;;;;51.95;28.27;;;;;;;1.79;97.96;103555.59;5002278;28;20041;-58
2022/01/12 02:14:56;;;;;;;55.13;28.08;;;;;;;1.80;98.05;103551.03;5003826;28;20445;-58
2022/01/12 02:17:26;;;;;;;52.45;29.05;;;;;;;1.79;98.20;103552.00;5002182;28;20026;-58
2022/01/12 02:36:25;;;;;;;50.08;28.80;;;;;;;1.86;98.58;103591.25;5002819;28;20048;-58
2022/01/12 02:41:38;;;;;;;50.80;28.50;;;;;;;1.84;98.46;103590.50;5002895;28;20400;-59
2022/01/12 02:54:53;;;;;;;52.00;29.60;;;;;;;1.89;98.87;103606.44;5003022;28;20030;-58
2022/01/12 02:57:20;;;;;;;57.00;29.30;;;;;;;1.90;98.56;103611.75;5001602;28;20440;-58
2022/01/12 03:02:35;;;;;;;57.45;31.77;;;;;;;1.93;98.48;103625.09;5003615;28;20138;-58
2022/01/12 03:07:39;;;;;;;53.13;29.40;;;;;;;1.96;98.70;103624.00;5003026;28;20422;-59
2022/01/12 03:10:07;;;;;;;54.85;32.35;;;;;;;1.96;98.79;103629.41;5001987;28;20080;-58
2022/01/12 03:12:35;;;;;;;55.20;28.92;;;;;;;2.01;98.57;103641.69;5001486;28;20158;-59
2022/01/12 03:15:00;;;;;;;50.50;30.25;;;;;;;1.98;98.36;103646.47;5006432;28;20029;-58
2022/01/12 03:17:25;;;;;;;58.67;31.33;;;;;;;1.99;99.05;103643.63;5005738;28;20109;-58
2022/01/12 03:19:50;;;;;;;56.75;30.63;;;;;;;2.01;98.54;103647.09;4997622;28;20065;-58
2022/01/12 03:22:15;;;;;;;57.25;30.40;;;;;;;2.02;98.95;103648.81;4986217;28;20077;-58
2022/01/12 03:24:42;;;;;;;55.85;32.05;;;;;;;2.02;98.67;103648.81;5004266;28;20105;-58
2022/01/12 03:27:09;;;;;;;54.35;30.38;;;;;;;2.03;98.65;103644.31;5004494;28;20523;-59
2022/01/12 03:29:35;;;;;;;53.20;29.77;;;;;;;2.03;98.80;103645.16;4989178;28;20050;-58
2022/01/12 03:32:02;;;;;;;58.13;31.75;;;;;;;2.00;98.79;103647.22;5004260;28;20026;-58
2022/01/12 03:34:31;;;;;;;55.33;30.95;;;;;;;1.99;98.41;103643.63;5006805;28;20045;-58
2022/01/12 03:37:40;;;;;;;52.85;31.20;;;;;;;1.99;98.82;103645.50;5006364;28;20080;-58
2022/01/12 03:40:00;;;;;;;57.47;30.90;;;;;;;1.99;98.45;103646.34;5006562;28;20042;-58
2022/01/12 03:42:25;;;;;;;58.97;31.88;;;;;;;1.98;98.55;103644.63;5004139;28;20064;-58
2022/01/12 03:44:50;;;;;;;57.53;31.75;;;;;;;1.97;99.00;103637.44;5005357;28;20048;-58
2022/01/12 03:47:17;;;;;;;63.85;33.28;;;;;;;1.99;98.91;103651.78;5005871;28;20109;-58
2022/01/12 03:49:42;;;;;;;59.75;32.72;;;;;;;1.97;98.91;103642.84;5005748;28;20026;-58
2022/01/12 03:52:07;;;;;;;58.22;32.22;;;;;;;1.99;99.04;103643.63;4985743;28;20080;-58
2022/01/12 03:54:32;;;;;;;59.75;31.38;;;;;;;2.01;99.70;103660.66;4995047;28;20148;-58
2022/01/12 03:56:59;;;;;;;60.35;33.50;;;;;;;2.01;99.28;103659.78;5001075;28;20392;-58
2022/01/12 03:59:24;;;;;;;62.40;34.63;;;;;;;1.99;99.35;103672.59;5004823;28;20050;-58
2022/01/12 04:01:49;;;;;;;67.68;34.28;;;;;;;2.00;99.84;103669.75;5005534;28;20037;-58
2022/01/12 04:04:23;;;;;;;64.13;35.63;;;;;;;2.00;99.66;103675.19;5005195;28;20080;-58
2022/01/12 04:09:33;;;;;;;61.05;34.33;;;;;;;2.03;99.58;103666.84;5005671;28;20029;-58
2022/01/12 04:11:58;;;;;;;65.10;35.95;;;;;;;2.02;99.37;103667.81;5004052;28;20029;-58
2022/01/12 04:14:24;;;;;;;60.63;32.75;;;;;;;2.00;99.58;103661.63;5004658;28;20028;-58
2022/01/12 04:16:49;;;;;;;63.92;35.55;;;;;;;2.01;99.67;103665.22;5004904;28;20224;-58
2022/01/12 04:19:14;;;;;;;59.60;33.67;;;;;;;2.01;100.00;103668.78;5004603;28;20481;-58
2022/01/12 04:21:47;;;;;;;61.75;33.92;;;;;;;2.01;99.84;103660.66;5004243;28;20022;-58
2022/01/12 04:24:13;;;;;;;61.17;34.17;;;;;;;2.02;100.00;103669.66;5004091;28;20021;-58
2022/01/12 04:26:39;;;;;;;63.03;34.88;;;;;;;2.01;99.95;103666.06;5003165;28;20362;-58
2022/01/12 04:29:06;;;;;;;62.55;33.60;;;;;;;2.00;99.55;103656.22;5004574;28;20025;-58
2022/01/12 04:31:32;;;;;;;59.80;35.53;;;;;;;1.99;99.91;103657.19;5004676;28;20041;-59
2022/01/12 04:33:57;;;;;;;61.55;35.13;;;;;;;1.99;100.00;103657.19;5005499;28;20428;-58
2022/01/12 04:36:22;;;;;;;64.60;36.42;;;;;;;1.99;100.00;103657.19;5004343;28;20017;-58
2022/01/12 04:38:48;;;;;;;64.20;35.08;;;;;;;2.01;99.81;103655.22;5004785;28;20029;-58
2022/01/12 04:41:14;;;;;;;61.25;34.03;;;;;;;2.01;100.00;103652.53;5004200;28;20125;-58
2022/01/12 04:43:42;;;;;;;65.50;36.03;;;;;;;1.99;100.00;103645.50;5003379;28;20037;-58
2022/01/12 04:48:38;;;;;;;60.50;34.57;;;;;;;2.02;99.76;103666.94;5005059;28;20400;-58
2022/01/12 04:51:04;;;;;;;63.35;37.00;;;;;;;2.00;99.52;103660.78;5004226;28;20275;-59
2022/01/12 04:53:31;;;;;;;62.70;38.67;;;;;;;1.98;99.77;103660.03;5005476;28;20029;-58
2022/01/12 04:55:57;;;;;;;62.97;35.97;;;;;;;1.95;99.90;103652.94;5004637;28;20038;-58
2022/01/12 04:58:22;;;;;;;66.05;36.53;;;;;;;1.93;100.00;103641.34;5003335;28;20136;-58
2022/01/12 05:00:48;;;;;;;65.55;35.83;;;;;;;1.94;100.00;103644.94;5004520;28;20141;-58
2022/01/12 05:13:55;;;;;;;70.18;35.63;;;;;;;1.98;100.00;103649.19;4989373;28;20049;-58
2022/01/12 05:16:21;;;;;;;62.90;35.45;;;;;;;1.94;100.00;103659.34;5003868;28;20687;-58
2022/01/12 05:18:48;;;;;;;61.42;34.80;;;;;;;1.96;100.00;103660.09;5003905;28;20083;-58
2022/01/12 05:21:15;;;;;;;64.90;36.47;;;;;;;1.96;100.00;103657.38;5003086;28;20068;-58
2022/01/12 05:23:40;;;;;;;60.97;34.75;;;;;;;1.97;100.00;103650.13;5003942;28;20690;-58
2022/01/12 05:26:06;;;;;;;65.03;36.13;;;;;;;1.97;100.00;103648.28;5003591;28;20022;-59
2022/01/12 05:28:33;;;;;;;60.22;33.95;;;;;;;1.99;100.00;103662.63;5003585;28;20026;-59
2022/01/12 05:31:00;;;;;;;66.63;36.50;;;;;;;1.97;100.00;103669.97;5002082;28;20036;-58
2022/01/12 05:33:26;;;;;;;69.88;35.08;;;;;;;2.00;100.00;103672.47;5003871;28;20033;-58
2022/01/12 05:35:53;;;;;;;71.72;37.45;;;;;;;1.99;100.00;103678.88;5003223;28;20061;-58
2022/01/12 05:38:19;;;;;;;61.78;34.85;;;;;;;1.99;100.00;103681.59;5002770;28;20030;-58
2022/01/12 05:40:52;;;;;;;62.80;34.83;;;;;;;2.00;100.00;103682.44;5003117;28;20079;-58
2022/01/12 05:43:24;;;;;;;66.63;35.92;;;;;;;1.99;100.00;103681.59;5002919;28;20025;-59
2022/01/12 05:45:51;;;;;;;65.65;36.40;;;;;;;1.99;100.00;103678.00;5001463;28;20026;-58
2022/01/12 05:50:42;;;;;;;69.30;38.17;;;;;;;2.04;100.00;103678.56;5003356;28;20030;-58
2022/01/12 05:53:08;;;;;;;73.05;38.05;;;;;;;2.02;100.00;103673.22;5003317;28;20026;-59
2022/01/12 05:55:33;;;;;;;73.15;36.85;;;;;;;2.04;100.00;103674.00;5002688;28;20022;-59
2022/01/12 05:57:59;;;;;;;68.43;37.40;;;;;;;2.04;100.00;103673.16;5003521;28;20038;-58
2022/01/12 06:00:28;;;;;;;69.45;38.08;;;;;;;2.05;100.00;103675.75;5002379;28;20046;-58
2022/01/12 06:02:53;;;;;;;68.97;37.15;;;;;;;2.05;100.00;103672.16;5003678;28;20034;-58
2022/01/12 06:05:20;;;;;;;75.38;38.72;;;;;;;2.07;100.00;103679.19;5003602;28;20089;-58
2022/01/12 06:07:47;;;;;;;68.55;37.55;;;;;;;2.07;100.00;103678.34;4994110;28;20033;-58
2022/01/12 06:10:12;;;;;;;73.30;37.47;;;;;;;2.07;100.00;103681.03;4986045;28;20062;-58
2022/01/12 06:12:38;;;;;;;74.20;38.72;;;;;;;2.10;100.00;103678.13;5002761;28;20044;-58
2022/01/12 06:15:05;;;;;;;69.82;37.95;;;;;;;2.08;100.00;103689.09;5002729;28;20030;-59
2022/01/12 06:17:31;;;;;;;74.97;39.90;;;;;;;2.11;100.00;103697.97;5003964;28;20053;-59
2022/01/12 06:19:56;;;;;;;73.75;39.15;;;;;;;2.16;100.00;103698.53;5003893;28;20121;-58
2022/01/12 06:22:23;;;;;;;74.65;36.78;;;;;;;2.09;100.00;103708.94;5002716;28;20729;-58
2022/01/12 06:24:49;;;;;;;78.47;38.17;;;;;;;2.09;100.00;103711.66;4992932;28;20109;-58
2022/01/12 06:27:16;;;;;;;75.88;38.50;;;;;;;2.10;100.00;103720.66;5002442;28;20125;-58
2022/01/12 06:29:49;;;;;;;75.03;37.65;;;;;;;2.10;100.00;103724.22;5002797;28;20057;-58
2022/01/12 06:32:15;;;;;;;72.47;38.20;;;;;;;2.08;100.00;103724.34;5001990;28;20034;-58
2022/01/12 06:34:40;;;;;;;77.55;37.53;;;;;;;2.08;100.00;103720.75;5003644;28;20036;-59
2022/01/12 06:37:06;;;;;;;75.78;38.83;;;;;;;2.06;100.00;103728.97;5002420;28;20101;-58
2022/01/12 06:39:32;;;;;;;76.63;38.00;;;;;;;2.05;100.00;103740.78;5003471;28;20509;-59
2022/01/12 06:41:57;;;;;;;77.68;37.20;;;;;;;2.07;100.00;103746.09;5002268;28;20034;-58
2022/01/12 06:44:25;;;;;;;76.25;37.58;;;;;;;2.07;100.00;103752.41;5002973;28;20061;-58
2022/01/12 06:46:51;;;;;;;72.60;38.93;;;;;;;2.11;100.00;103758.50;5003756;28;20033;-58
2022/01/12 06:49:17;;;;;;;85.03;39.05;;;;;;;2.10;100.00;103751.34;5006879;28;20312;-58
2022/01/12 06:51:44;;;;;;;81.50;39.08;;;;;;;2.13;100.00;103744.81;5006324;28;20065;-58
2022/01/12 06:54:09;;;;;;;78.05;39.05;;;;;;;2.14;100.00;103746.59;5005862;28;20128;-59
2022/01/12 06:56:35;;;;;;;78.50;39.67;;;;;;;2.15;100.00;103740.19;5005699;28;20034;-58
2022/01/12 06:59:01;;;;;;;77.10;39.35;;;;;;;2.15;100.00;103753.75;5007031;28;20702;-58
2022/01/12 07:01:27;;;;;;;78.65;40.38;;;;;;;2.16;100.00;103759.03;5006881;28;20037;-58
2022/01/12 07:03:52;;;;;;;89.82;40.65;;;;;;;2.17;100.00;103762.63;5006715;28;20096;-58
2022/01/12 07:06:18;;;;;;;82.97;39.75;;;;;;;2.20;100.00;103767.84;5005639;28;20054;-58
2022/01/12 07:08:44;;;;;;;74.97;37.83;;;;;;;2.19;100.00;103764.28;5006791;28;20026;-58
2022/01/12 07:11:09;;;;;;;82.90;42.75;;;;;;;2.20;100.00;103771.44;4994705;28;20022;-58
2022/01/12 07:13:34;;;;;;;87.55;41.70;;;;;;;2.21;100.00;103766.88;5006258;28;20538;-59
2022/01/12 07:16:00;;;;;;;84.13;41.63;;;;;;;2.22;100.00;103768.59;5006352;28;20068;-58
2022/01/12 07:18:26;;;;;;;79.15;39.78;;;;;;;2.21;100.00;103761.44;5005801;28;20037;-58
2022/01/12 07:20:52;;;;;;;77.18;41.70;;;;;;;2.22;100.00;103765.88;5006015;28;20037;-58
2022/01/12 07:23:17;;;;;;;83.00;42.53;;;;;;;2.23;100.00;103762.19;5003908;28;20132;-59
2022/01/12 07:25:43;;;;;;;78.20;40.17;;;;;;;2.25;100.00;103773.84;5006488;28;20029;-59
2022/01/12 07:28:08;;;;;;;88.13;40.67;;;;;;;2.25;100.00;103774.69;5004947;28;20106;-59
2022/01/12 07:30:33;;;;;;;78.55;40.88;;;;;;;2.27;100.00;103783.59;5006180;28;20054;-59
2022/01/12 07:32:58;;;;;;;81.28;41.33;;;;;;;2.29;100.00;103791.63;5005919;28;20477;-59
2022/01/12 07:35:24;;;;;;;81.47;38.83;;;;;;;2.29;100.00;103797.94;5005795;28;20037;-59
2022/01/12 07:37:49;;;;;;;80.45;40.58;;;;;;;2.28;100.00;103804.34;5004260;28;20038;-59
2022/01/12 07:40:15;;;;;;;81.32;38.92;;;;;;;2.28;100.00;103809.75;4996743;28;20110;-59
2022/01/12 07:42:41;;;;;;;82.93;39.75;;;;;;;2.28;100.00;103815.19;5004674;28;20045;-59
2022/01/12 07:45:06;;;;;;;82.78;40.70;;;;;;;2.27;100.00;103813.41;5005498;28;20496;-60
2022/01/12 07:47:32;;;;;;;81.90;39.38;;;;;;;2.28;100.00;103817.88;5005518;28;20022;-60
2022/01/12 07:49:59;;;;;;;82.53;40.28;;;;;;;2.30;100.00;103817.78;5005781;28;20041;-59
2022/01/12 07:52:25;;;;;;;93.22;43.25;;;;;;;2.30;100.00;103817.78;5005618;28;20022;-59
2022/01/12 07:54:51;;;;;;;96.03;41.28;;;;;;;2.31;100.00;103825.81;5005305;28;20034;-59
2022/01/12 07:57:17;;;;;;;89.80;40.35;;;;;;;2.30;100.00;103824.06;5003970;28;20021;-59
2022/01/12 07:59:42;;;;;;;94.93;41.17;;;;;;;2.31;100.00;103830.34;5004113;28;20057;-59
2022/01/12 08:02:08;;;;;;;98.60;42.08;;;;;;;2.34;100.00;103841.00;5004818;28;20030;-59
2022/01/12 08:04:34;;;;;;;99.43;40.63;;;;;;;2.34;100.00;103849.16;5005036;28;20022;-60
2022/01/12 08:06:59;;;;;;;100.57;41.17;;;;;;;2.32;100.00;103854.66;5005943;28;20469;-59
2022/01/12 08:09:25;;;;;;;95.13;39.72;;;;;;;2.32;100.00;103864.63;5001046;28;20026;-59
2022/01/12 08:11:50;;;;;;;103.88;39.08;;;;;;;2.34;100.00;103868.13;4994211;28;20030;-59
2022/01/12 08:14:15;;;;;;;107.95;40.33;;;;;;;2.34;100.00;103858.16;5004274;28;20037;-59
2022/01/12 08:16:42;;;;;;;114.50;46.88;;;;;;;2.37;100.00;103867.91;4999902;28;20022;-60
2022/01/12 08:19:07;;;;;;;142.48;48.63;;;;;;;2.38;100.00;103872.34;5003128;28;20044;-59
2022/01/12 08:21:32;;;;;;;128.00;46.70;;;;;;;2.40;100.00;103859.59;5004815;28;20388;-59
2022/01/12 08:23:58;;;;;;;115.00;44.50;;;;;;;2.41;100.00;103868.59;5002036;28;20038;-59
2022/01/12 08:26:23;;;;;;;125.85;45.22;;;;;;;2.42;100.00;103870.31;5002988;28;20033;-59
2022/01/12 08:28:48;;;;;;;115.18;46.35;;;;;;;2.44;100.00;103873.81;5002178;28;20042;-59
2022/01/12 08:31:14;;;;;;;140.75;46.50;;;;;;;2.45;100.00;103871.00;4994159;28;20610;-59
2022/01/12 08:33:39;;;;;;;112.95;45.05;;;;;;;2.49;100.00;103866.25;5003554;28;20488;-60
2022/01/12 08:36:04;;;;;;;123.10;44.00;;;;;;;2.51;100.00;103878.72;5002059;28;20041;-59
2022/01/12 08:38:30;;;;;;;117.88;43.20;;;;;;;2.53;100.00;103867.75;5003389;28;20433;-59
2022/01/12 08:40:56;;;;;;;129.43;44.72;;;;;;;2.54;100.00;103867.66;5014628;28;20083;-59
2022/01/12 08:43:21;;;;;;;119.63;42.13;;;;;;;2.57;100.00;103858.44;5005608;28;20061;-59
2022/01/12 08:45:46;;;;;;;111.47;42.83;;;;;;;2.59;100.00;103867.34;5016445;28;20037;-60
2022/01/12 08:48:12;;;;;;;123.55;44.00;;;;;;;2.62;100.00;103864.41;5009753;28;20109;-59
2022/01/12 08:50:37;;;;;;;117.18;40.78;;;;;;;2.65;100.00;103872.34;5003673;28;20069;-59
2022/01/12 08:53:02;;;;;;;127.93;42.55;;;;;;;2.66;100.00;103878.66;5010736;28;20443;-60
2022/01/12 08:55:28;;;;;;;93.07;36.63;;;;;;;2.68;100.00;103882.13;5003668;28;20504;-59
2022/01/12 08:57:54;;;;;;;85.07;35.47;;;;;;;2.70;100.00;103893.75;5003458;28;20557;-59
2022/01/12 09:00:19;;;;;;;103.07;35.65;;;;;;;2.73;100.00;103885.38;5005232;28;20501;-59
2022/01/12 09:02:45;;;;;;;91.57;36.83;;;;;;;2.75;100.00;103887.03;5003113;28;20169;-59
2022/01/12 09:05:15;;;;;;;92.18;36.45;;;;;;;2.77;100.00;103892.34;4999122;28;20041;-59
2022/01/12 09:07:41;;;;;;;104.28;37.55;;;;;;;2.79;100.00;103909.41;5003052;28;20105;-59
2022/01/12 09:10:06;;;;;;;99.32;34.55;;;;;;;2.81;100.00;103905.59;5003173;28;20121;-59
2022/01/12 09:12:32;;;;;;;97.25;35.25;;;;;;;2.83;100.00;103914.50;5003149;28;20369;-60
2022/01/12 09:14:57;;;;;;;105.47;34.88;;;;;;;2.85;100.00;103922.56;5002956;28;20030;-59
2022/01/12 09:17:23;;;;;;;87.32;34.38;;;;;;;2.88;100.00;103916.03;5003340;28;20030;-59
2022/01/12 09:19:50;;;;;;;92.43;33.25;;;;;;;2.89;100.00;103917.78;5002602;28;20045;-59
2022/01/12 09:22:15;;;;;;;113.43;33.67;;;;;;;2.89;100.00;103913.25;5001793;28;20030;-59
2022/01/12 09:24:44;;;;;;;93.95;31.58;;;;;;;2.91;100.00;103918.56;5002949;28;20034;-60
2022/01/12 09:27:10;;;;;;;89.53;31.55;;;;;;;2.94;100.00;103921.03;5000697;28;20041;-60
2022/01/12 09:29:35;;;;;;;111.05;34.30;;;;;;;2.93;100.00;103925.59;5000834;28;20404;-59
2022/01/12 09:32:01;;;;;;;99.43;31.08;;;;;;;2.92;100.00;103926.59;5003151;28;20022;-59
2022/01/12 09:34:26;;;;;;;106.97;31.83;;;;;;;2.94;100.00;103931.91;5006124;28;20164;-59
2022/01/12 09:36:52;;;;;;;120.57;30.30;;;;;;;2.96;100.00;103935.41;5006464;28;20030;-60
2022/01/12 09:39:17;;;;;;;115.35;29.77;;;;;;;2.99;100.00;103941.50;5016813;28;20042;-59
2022/01/12 09:41:43;;;;;;;130.93;31.58;;;;;;;2.98;100.00;103944.31;5006619;28;20056;-59
2022/01/12 09:44:09;;;;;;;223.43;37.30;;;;;;;3.00;100.00;103948.66;5003580;28;20637;-60
2022/01/12 09:46:34;;;;;;;446.90;47.47;;;;;;;3.03;100.00;103948.44;5003622;28;20084;-60
2022/01/12 09:49:00;;;;;;;125.22;31.00;;;;;;;3.04;100.00;103955.63;5003303;28;20144;-59
2022/01/12 09:51:25;;;;;;;132.05;33.63;;;;;;;3.06;100.00;103955.53;5000638;28;20438;-59
2022/01/12 09:53:52;;;;;;;135.23;31.08;;;;;;;3.08;100.00;103954.41;5011553;28;20038;-59
2022/01/12 09:56:21;;;;;;;291.77;41.92;;;;;;;3.16;100.00;103958.47;5000621;28;20055;-59
2022/01/12 09:58:47;;;;;;;106.72;31.55;;;;;;;3.10;100.00;103957.94;4998037;28;20889;-59
2022/01/12 10:01:24;;;;;;;92.68;29.63;;;;;;;3.12;100.00;103968.66;4989004;28;20046;-59
2022/01/12 10:03:49;;;;;;;82.70;28.80;;;;;;;3.12;100.00;103969.53;5001470;28;20030;-59
2022/01/12 10:06:16;;;;;;;84.20;30.80;;;;;;;3.11;100.00;103984.09;4993239;28;20085;-60
2022/01/12 10:08:42;;;;;;;80.57;28.55;;;;;;;3.11;100.00;103981.38;5000976;28;20105;-60
2022/01/12 10:11:10;;;;;;;73.03;28.65;;;;;;;3.15;100.00;103983.91;4995628;28;20076;-59
2022/01/12 10:13:37;;;;;;;;;;;;;;;3.24;100.00;103986.81;4999983;28;20014;-60
2022/01/12 10:16:17;;;;;;;74.05;27.92;;;;;;;3.26;100.00;103982.19;4999239;28;20348;-61
2022/01/12 10:18:49;;;;;;;72.07;28.27;;;;;;;3.26;100.00;103984.91;5000334;28;20037;-60
2022/01/12 10:21:30;;;;;;;71.80;28.02;;;;;;;3.25;100.00;103985.88;4998761;28;20037;-59
2022/01/12 10:24:08;;;;;;;65.38;26.30;;;;;;;3.25;100.00;103976.88;4999792;28;20033;-59
2022/01/12 10:26:37;;;;;;;;;;;;;;;3.34;100.00;103981.63;5006124;28;20124;-60
2022/01/12 10:29:05;;;;;;;61.53;25.63;;;;;;;3.31;100.00;103971.00;5005742;28;19945;-61
2022/01/12 10:31:50;;;;;;;63.75;25.20;;;;;;;3.26;100.00;103960.44;5008281;28;20112;-59
2022/01/12 10:34:17;;;;;;;50.65;20.33;;;;;;;3.30;100.00;103956.56;5005332;28;20041;-60
2022/01/12 10:36:44;;;;;;;61.37;25.60;;;;;;;3.26;100.00;103957.72;5006779;28;20109;-59
2022/01/12 10:39:12;;;;;;;63.45;26.13;;;;;;;3.24;100.00;103973.25;5006194;28;20439;-60
2022/01/12 10:41:52;;;;;;;64.72;26.40;;;;;;;3.24;100.00;103975.97;5005357;28;20038;-59
2022/01/12 10:44:28;;;;;;;66.70;25.27;;;;;;;3.27;100.00;103978.47;5005264;28;20040;-59
2022/01/12 10:47:20;;;;;;;67.38;26.27;;;;;;;3.33;100.00;103977.19;5000345;28;20605;-59
2022/01/12 10:50:00;;;;;;;67.68;26.90;;;;;;;3.43;100.00;103972.84;5006335;28;20049;-60
2022/01/12 10:52:29;;;;;;;67.00;24.60;;;;;;;3.43;100.00;103971.97;5012011;28;20025;-59
2022/01/12 10:55:00;;;;;;;69.68;26.45;;;;;;;3.46;100.00;103966.34;5006660;28;20618;-59
2022/01/12 10:57:28;;;;;;;69.93;27.63;;;;;;;3.50;100.00;103978.75;5004775;28;20030;-59
2022/01/12 11:00:05;;;;;;;60.05;26.15;;;;;;;3.47;100.00;103977.09;5006314;28;20133;-59
2022/01/12 11:02:31;;;;;;;72.18;27.08;;;;;;;3.48;100.00;103981.56;5006952;28;20022;-59
2022/01/12 11:04:57;;;;;;;68.15;26.65;;;;;;;3.48;100.00;103983.41;5006001;28;20030;-59
2022/01/12 11:07:27;;;;;;;63.75;27.08;;;;;;;3.47;100.00;103968.09;5005986;28;20053;-59
2022/01/12 11:09:56;;;;;;;71.88;27.67;;;;;;;3.51;100.00;103970.47;5006157;28;20080;-59
2022/01/12 11:12:21;;;;;;;68.72;26.52;;;;;;;3.56;100.00;103972.88;5003123;28;20380;-60
2022/01/12 11:14:47;;;;;;;64.70;26.92;;;;;;;3.57;100.00;103964.59;5004322;28;20033;-59
2022/01/12 11:17:12;;;;;;;60.50;24.85;;;;;;;3.61;99.61;103968.84;5005392;28;20022;-59
2022/01/12 11:19:44;;;;;;;59.38;24.88;;;;;;;3.63;98.93;103979.59;5002616;28;20065;-60
2022/01/12 11:22:24;;;;;;;62.67;24.88;;;;;;;3.59;99.77;103981.66;5005737;28;20040;-60
2022/01/12 11:24:52;;;;;;;59.88;26.20;;;;;;;3.59;99.76;103989.81;5005660;28;20042;-59
2022/01/12 11:27:22;;;;;;;63.65;25.00;;;;;;;3.61;99.24;103993.31;5003460;28;20034;-59
2022/01/12 11:29:47;;;;;;;63.28;25.90;;;;;;;3.63;99.27;103993.19;5006602;28;20030;-59
2022/01/12 11:32:22;;;;;;;63.35;25.85;;;;;;;3.62;98.58;103989.59;5001233;28;20022;-59
2022/01/12 11:34:58;;;;;;;68.47;26.35;;;;;;;3.69;98.71;103994.59;4991969;28;20645;-60
2022/01/12 11:37:24;;;;;;;68.40;25.95;;;;;;;3.70;98.70;103989.09;4996570;28;20033;-59
2022/01/12 11:39:49;;;;;;;58.47;25.95;;;;;;;3.71;98.14;103981.78;5006197;28;20026;-59
2022/01/12 11:42:15;;;;;;;61.00;26.20;;;;;;;3.78;98.71;103975.81;5004713;28;20029;-59
2022/01/12 11:44:40;;;;;;;66.90;28.60;;;;;;;3.83;98.87;103978.19;4997881;28;20053;-59
2022/01/12 11:47:13;;;;;;;57.58;24.83;;;;;;;3.85;97.92;103968.06;5002577;28;20061;-60
2022/01/12 11:49:44;;;;;;;56.78;25.38;;;;;;;3.85;97.50;103970.78;5004532;28;20083;-59
2022/01/12 11:52:18;;;;;;;56.15;24.90;;;;;;;3.82;96.65;103969.16;5005484;28;20026;-59
2022/01/12 11:54:47;;;;;;;62.88;25.55;;;;;;;3.83;97.02;103959.16;5006034;28;20033;-59
2022/01/12 11:57:18;;;;;;;58.58;25.05;;;;;;;3.85;96.88;103962.63;5002542;28;20125;-60
2022/01/12 11:59:56;;;;;;;57.80;24.27;;;;;;;3.88;96.81;103978.72;5021242;28;20061;-59
2022/01/12 12:02:38;;;;;;;63.95;25.80;;;;;;;3.88;97.20;103976.00;5004998;28;20354;-59
2022/01/12 12:05:08;;;;;;;60.60;25.65;;;;;;;3.86;97.49;103978.00;5005665;28;20026;-60
2022/01/12 12:07:53;;;;;;;59.40;25.92;;;;;;;3.92;97.39;103972.09;5003635;28;20041;-60
2022/01/12 12:10:34;;;;;;;56.90;24.50;;;;;;;3.86;97.43;103981.56;5003695;28;20484;-60
2022/01/12 12:13:00;;;;;;;55.78;24.55;;;;;;;3.85;97.34;103976.22;5006109;28;20030;-59
2022/01/12 12:15:26;;;;;;;62.70;29.60;;;;;;;3.86;97.52;103973.41;5003464;28;20489;-59
2022/01/12 12:17:54;;;;;;;62.53;26.35;;;;;;;3.89;97.00;103965.03;4993387;28;20042;-59
2022/01/12 12:20:22;;;;;;;60.83;27.35;;;;;;;3.93;96.64;103984.72;4985902;28;20042;-59
2022/01/12 12:22:49;;;;;;;56.38;25.00;;;;;;;3.96;97.11;103983.63;4994108;28;20041;-59
2022/01/12 12:25:20;;;;;;;59.45;26.55;;;;;;;3.97;97.05;103983.53;5004832;28;20083;-60
2022/01/12 12:27:52;;;;;;;63.45;28.80;;;;;;;4.00;97.09;103982.41;5004812;28;20030;-59
2022/01/12 12:30:19;;;;;;;60.72;26.58;;;;;;;4.00;96.11;103985.13;5005105;28;20635;-59
2022/01/12 12:32:50;;;;;;;58.15;25.88;;;;;;;4.02;95.84;103980.47;5003576;28;20026;-59